61CL weather

Johnson Brothers Airport
Calexico, California, United States

Public forecast

Using degrees Fahrenheit for public forecast. Weather courtesy of forecast.io.

METAR (pilot weather report)

Closest report is Imperial County Airport, 9.7 nm (18.0 km) N. Retrieved 2019/08/17 11:53 UTC (16 minutes ago):

KIPL 171153Z AUTO 10006KT 10SM CLR 26/09 A2970 RMK AO2 SLP058 T02610094 10317 20261 55000

TAF (pilot weather forecast)

Closest forecast is Imperial County Airport, 9.7 nm (18.0 km) N. Retrieved 2019/08/17 12:33 UTC (0 seconds ago):

TAF KIPL 171131Z 1712/1812 VRB05KT P6SM SKC FM171400 14007KT P6SM SKC FM172300 26012KT P6SM SKC FM180800 28006KT P6SM SKC